sensor_id;sensor_type;location;lat;lon;timestamp;pressure;altitude;pressure_sealevel;temperature;humidity
44457;BME280;30159;49.316;8.558;2023-05-29T00:02:08;100427.31;;;18.75;58.22
44457;BME280;30159;49.316;8.558;2023-05-29T00:04:34;100436.47;;;18.79;58.71
44457;BME280;30159;49.316;8.558;2023-05-29T00:07:02;100434.31;;;18.85;58.57
44457;BME280;30159;49.316;8.558;2023-05-29T00:09:29;100439.31;;;18.83;58.45
44457;BME280;30159;49.316;8.558;2023-05-29T00:11:55;100435.13;;;18.85;58.08
44457;BME280;30159;49.316;8.558;2023-05-29T00:14:23;100429.31;;;18.87;58.24
44457;BME280;30159;49.316;8.558;2023-05-29T00:16:51;100331.75;;;18.24;58.50
44457;BME280;30159;49.316;8.558;2023-05-29T00:19:18;100420.66;;;18.85;58.51
44457;BME280;30159;49.316;8.558;2023-05-29T00:21:44;100421.59;;;18.89;58.52
44457;BME280;30159;49.316;8.558;2023-05-29T00:24:13;100359.84;;;18.46;58.36
44457;BME280;30159;49.316;8.558;2023-05-29T00:26:39;100423.72;;;18.83;58.38
44457;BME280;30159;49.316;8.558;2023-05-29T00:29:06;100385.31;;;18.59;58.48
44457;BME280;30159;49.316;8.558;2023-05-29T00:31:34;100415.19;;;18.85;58.06
44457;BME280;30159;49.316;8.558;2023-05-29T00:34:01;100407.00;;;18.85;57.89
44457;BME280;30159;49.316;8.558;2023-05-29T00:36:28;100410.66;;;18.89;57.88
44457;BME280;30159;49.316;8.558;2023-05-29T00:38:54;100413.06;;;18.90;57.68
44457;BME280;30159;49.316;8.558;2023-05-29T00:41:21;100420.91;;;18.92;57.82
44457;BME280;30159;49.316;8.558;2023-05-29T00:43:48;100417.72;;;18.90;58.36
44457;BME280;30159;49.316;8.558;2023-05-29T00:46:15;100430.66;;;18.81;58.38
44457;BME280;30159;49.316;8.558;2023-05-29T00:48:43;100430.44;;;18.65;58.73
44457;BME280;30159;49.316;8.558;2023-05-29T00:51:11;100415.34;;;18.38;61.18
44457;BME280;30159;49.316;8.558;2023-05-29T00:53:39;100424.19;;;18.14;62.15
44457;BME280;30159;49.316;8.558;2023-05-29T00:56:07;100423.19;;;17.88;63.40
44457;BME280;30159;49.316;8.558;2023-05-29T00:58:34;100425.94;;;17.71;64.02
44457;BME280;30159;49.316;8.558;2023-05-29T01:01:01;100420.34;;;17.67;64.88
44457;BME280;30159;49.316;8.558;2023-05-29T01:03:28;100257.84;;;16.55;64.61
44457;BME280;30159;49.316;8.558;2023-05-29T01:05:58;100423.56;;;17.61;64.05
44457;BME280;30159;49.316;8.558;2023-05-29T01:08:25;100423.09;;;17.59;64.73
44457;BME280;30159;49.316;8.558;2023-05-29T01:10:54;100416.69;;;17.55;64.68
44457;BME280;30159;49.316;8.558;2023-05-29T01:13:27;100417.94;;;17.57;64.49
44457;BME280;30159;49.316;8.558;2023-05-29T01:16:00;100417.66;;;17.50;64.83
44457;BME280;30159;49.316;8.558;2023-05-29T01:18:36;100416.88;;;17.49;65.11
44457;BME280;30159;49.316;8.558;2023-05-29T01:21:11;100419.78;;;17.44;65.04
44457;BME280;30159;49.316;8.558;2023-05-29T01:23:52;100426.00;;;17.45;64.99
44457;BME280;30159;49.316;8.558;2023-05-29T01:26:45;100420.44;;;17.41;65.77
44457;BME280;30159;49.316;8.558;2023-05-29T01:29:14;100424.91;;;17.37;66.09
44457;BME280;30159;49.316;8.558;2023-05-29T01:31:42;100402.81;;;17.13;67.04
44457;BME280;30159;49.316;8.558;2023-05-29T01:34:10;100423.50;;;17.22;68.12
44457;BME280;30159;49.316;8.558;2023-05-29T01:36:36;100423.53;;;17.14;69.58
44457;BME280;30159;49.316;8.558;2023-05-29T01:39:03;100423.84;;;17.03;71.12
44457;BME280;30159;49.316;8.558;2023-05-29T01:41:31;100427.56;;;16.90;72.28
44457;BME280;30159;49.316;8.558;2023-05-29T01:44:01;100421.91;;;16.69;74.42
44457;BME280;30159;49.316;8.558;2023-05-29T01:46:32;100419.34;;;16.55;75.72
44457;BME280;30159;49.316;8.558;2023-05-29T01:48:58;100413.38;;;16.44;77.32
44457;BME280;30159;49.316;8.558;2023-05-29T01:51:25;100418.81;;;16.36;78.50
44457;BME280;30159;49.316;8.558;2023-05-29T01:53:51;100424.09;;;16.32;78.31
44457;BME280;30159;49.316;8.558;2023-05-29T01:56:18;100419.59;;;16.28;79.56
44457;BME280;30159;49.316;8.558;2023-05-29T01:58:46;100428.06;;;16.17;80.52
44457;BME280;30159;49.316;8.558;2023-05-29T02:01:14;100429.47;;;16.15;80.08
44457;BME280;30159;49.316;8.558;2023-05-29T02:03:41;100430.94;;;16.21;80.12
44457;BME280;30159;49.316;8.558;2023-05-29T02:06:08;100426.31;;;16.21;80.69
44457;BME280;30159;49.316;8.558;2023-05-29T02:08:35;100428.69;;;16.14;81.51
44457;BME280;30159;49.316;8.558;2023-05-29T02:11:02;100425.94;;;16.06;81.40
44457;BME280;30159;49.316;8.558;2023-05-29T02:13:28;100428.81;;;16.00;82.59
44457;BME280;30159;49.316;8.558;2023-05-29T02:15:55;100423.47;;;15.87;82.76
44457;BME280;30159;49.316;8.558;2023-05-29T02:18:23;100426.97;;;15.78;83.11
44457;BME280;30159;49.316;8.558;2023-05-29T02:20:50;100426.91;;;15.70;83.47
44457;BME280;30159;49.316;8.558;2023-05-29T02:23:17;100428.22;;;15.72;83.39
44457;BME280;30159;49.316;8.558;2023-05-29T02:25:44;100421.75;;;15.68;84.07
44457;BME280;30159;49.316;8.558;2023-05-29T02:28:11;100433.75;;;15.67;84.19
44457;BME280;30159;49.316;8.558;2023-05-29T02:30:37;100428.81;;;15.69;83.31
44457;BME280;30159;49.316;8.558;2023-05-29T02:33:04;100423.53;;;15.64;83.75
44457;BME280;30159;49.316;8.558;2023-05-29T02:35:33;100429.34;;;15.49;85.00
44457;BME280;30159;49.316;8.558;2023-05-29T02:37:59;100439.38;;;15.39;85.62
44457;BME280;30159;49.316;8.558;2023-05-29T02:40:26;100432.19;;;15.44;85.31
44457;BME280;30159;49.316;8.558;2023-05-29T02:42:52;100378.88;;;15.03;86.90
44457;BME280;30159;49.316;8.558;2023-05-29T02:45:19;100434.50;;;15.28;86.44
44457;BME280;30159;49.316;8.558;2023-05-29T02:47:45;100441.78;;;15.18;87.42
44457;BME280;30159;49.316;8.558;2023-05-29T02:50:12;100438.88;;;15.15;87.28
44457;BME280;30159;49.316;8.558;2023-05-29T02:52:41;100437.03;;;15.02;88.50
44457;BME280;30159;49.316;8.558;2023-05-29T02:55:08;100431.22;;;14.94;88.62
44457;BME280;30159;49.316;8.558;2023-05-29T02:57:34;100430.22;;;14.90;89.48
44457;BME280;30159;49.316;8.558;2023-05-29T03:00:01;100431.78;;;14.83;90.49
44457;BME280;30159;49.316;8.558;2023-05-29T03:02:31;100431.69;;;14.74;90.61
44457;BME280;30159;49.316;8.558;2023-05-29T03:04:58;100436.41;;;14.68;91.01
44457;BME280;30159;49.316;8.558;2023-05-29T03:07:25;100429.94;;;14.56;91.34
44457;BME280;30159;49.316;8.558;2023-05-29T03:09:53;100437.66;;;14.62;92.05
44457;BME280;30159;49.316;8.558;2023-05-29T03:12:20;100441.38;;;14.66;91.94
44457;BME280;30159;49.316;8.558;2023-05-29T03:14:47;100437.34;;;14.64;91.91
44457;BME280;30159;49.316;8.558;2023-05-29T03:17:13;100436.38;;;14.60;91.65
44457;BME280;30159;49.316;8.558;2023-05-29T03:19:40;100436.16;;;14.56;91.78
44457;BME280;30159;49.316;8.558;2023-05-29T03:22:06;100433.75;;;14.54;92.15
44457;BME280;30159;49.316;8.558;2023-05-29T03:24:33;100416.25;;;14.33;94.05
44457;BME280;30159;49.316;8.558;2023-05-29T03:27:02;100395.41;;;14.06;94.14
44457;BME280;30159;49.316;8.558;2023-05-29T03:29:31;100407.06;;;14.06;95.02
44457;BME280;30159;49.316;8.558;2023-05-29T03:31:57;100447.84;;;14.29;95.18
44457;BME280;30159;49.316;8.558;2023-05-29T03:34:24;100430.44;;;14.30;94.69
44457;BME280;30159;49.316;8.558;2023-05-29T03:36:50;100433.16;;;14.30;95.42
44457;BME280;30159;49.316;8.558;2023-05-29T03:39:17;100422.81;;;14.18;94.28
44457;BME280;30159;49.316;8.558;2023-05-29T03:41:43;100424.50;;;14.28;94.32
44457;BME280;30159;49.316;8.558;2023-05-29T03:44:11;100428.63;;;14.39;94.53
44457;BME280;30159;49.316;8.558;2023-05-29T03:46:37;100437.56;;;14.40;94.20
44457;BME280;30159;49.316;8.558;2023-05-29T03:49:04;100437.84;;;14.38;93.91
44457;BME280;30159;49.316;8.558;2023-05-29T03:51:32;100433.53;;;14.37;94.03
44457;BME280;30159;49.316;8.558;2023-05-29T03:53:58;100451.22;;;14.48;93.12
44457;BME280;30159;49.316;8.558;2023-05-29T03:56:25;100441.47;;;14.61;92.47
44457;BME280;30159;49.316;8.558;2023-05-29T03:58:52;100431.91;;;14.64;92.11
44457;BME280;30159;49.316;8.558;2023-05-29T04:01:19;100454.03;;;14.71;91.59
44457;BME280;30159;49.316;8.558;2023-05-29T04:03:46;100454.63;;;14.68;90.29
44457;BME280;30159;49.316;8.558;2023-05-29T04:06:13;100463.56;;;14.68;91.52
44457;BME280;30159;49.316;8.558;2023-05-29T04:08:39;100465.88;;;14.75;90.41
44457;BME280;30159;49.316;8.558;2023-05-29T04:11:06;100463.06;;;14.80;90.21
44457;BME280;30159;49.316;8.558;2023-05-29T04:13:32;100476.66;;;14.80;89.92
44457;BME280;30159;49.316;8.558;2023-05-29T04:15:59;100504.28;;;14.82;90.47
44457;BME280;30159;49.316;8.558;2023-05-29T04:18:26;100481.22;;;14.93;90.03
44457;BME280;30159;49.316;8.558;2023-05-29T04:20:53;100423.88;;;14.59;89.24
44457;BME280;30159;49.316;8.558;2023-05-29T04:23:20;100485.72;;;14.98;88.89
44457;BME280;30159;49.316;8.558;2023-05-29T04:25:46;100492.53;;;15.09;88.57
44457;BME280;30159;49.316;8.558;2023-05-29T04:28:16;100488.28;;;15.17;88.28
44457;BME280;30159;49.316;8.558;2023-05-29T04:30:42;100503.94;;;15.34;89.01
44457;BME280;30159;49.316;8.558;2023-05-29T04:33:09;100501.94;;;15.48;86.97
44457;BME280;30159;49.316;8.558;2023-05-29T04:35:39;100498.97;;;15.58;85.14
44457;BME280;30159;49.316;8.558;2023-05-29T04:38:08;100510.94;;;15.71;85.41
44457;BME280;30159;49.316;8.558;2023-05-29T04:40:34;100498.53;;;15.88;86.16
44457;BME280;30159;49.316;8.558;2023-05-29T04:43:02;100503.69;;;15.98;82.84
44457;BME280;30159;49.316;8.558;2023-05-29T04:45:30;100508.69;;;16.05;82.16
44457;BME280;30159;49.316;8.558;2023-05-29T04:47:57;100520.34;;;16.36;80.44
44457;BME280;30159;49.316;8.558;2023-05-29T04:50:23;100519.75;;;16.48;80.26
44457;BME280;30159;49.316;8.558;2023-05-29T04:52:52;100524.72;;;16.55;78.01
44457;BME280;30159;49.316;8.558;2023-05-29T04:55:19;100529.34;;;16.54;77.83
44457;BME280;30159;49.316;8.558;2023-05-29T04:57:46;100535.00;;;16.67;77.71
44457;BME280;30159;49.316;8.558;2023-05-29T05:00:13;100540.69;;;16.79;76.52
44457;BME280;30159;49.316;8.558;2023-05-29T05:02:41;100547.91;;;16.83;75.71
44457;BME280;30159;49.316;8.558;2023-05-29T05:05:08;100545.53;;;17.17;75.48
44457;BME280;30159;49.316;8.558;2023-05-29T05:07:35;100552.72;;;17.47;74.38
44457;BME280;30159;49.316;8.558;2023-05-29T05:10:03;100566.06;;;17.58;73.55
44457;BME280;30159;49.316;8.558;2023-05-29T05:12:30;100549.31;;;18.03;71.39
44457;BME280;30159;49.316;8.558;2023-05-29T05:14:57;100543.81;;;18.11;68.66
44457;BME280;30159;49.316;8.558;2023-05-29T05:17:23;100539.50;;;18.49;68.26
44457;BME280;30159;49.316;8.558;2023-05-29T05:19:50;100540.13;;;18.84;66.50
44457;BME280;30159;49.316;8.558;2023-05-29T05:22:17;100541.19;;;18.92;65.75
44457;BME280;30159;49.316;8.558;2023-05-29T05:24:44;100533.97;;;19.29;65.18
44457;BME280;30159;49.316;8.558;2023-05-29T05:27:12;100542.25;;;19.42;63.69
44457;BME280;30159;49.316;8.558;2023-05-29T05:29:38;100532.31;;;20.16;63.42
44457;BME280;30159;49.316;8.558;2023-05-29T05:32:05;100545.16;;;20.73;60.03
44457;BME280;30159;49.316;8.558;2023-05-29T05:34:33;100556.78;;;21.48;58.91
44457;BME280;30159;49.316;8.558;2023-05-29T05:36:59;100564.78;;;22.13;56.97
44457;BME280;30159;49.316;8.558;2023-05-29T05:39:27;100559.06;;;22.34;56.12
44457;BME280;30159;49.316;8.558;2023-05-29T05:41:54;100557.91;;;23.21;54.67
44457;BME280;30159;49.316;8.558;2023-05-29T05:44:22;100563.06;;;23.42;53.59
44457;BME280;30159;49.316;8.558;2023-05-29T05:46:48;100567.47;;;23.27;53.03
44457;BME280;30159;49.316;8.558;2023-05-29T05:49:15;100561.00;;;23.97;52.54
44457;BME280;30159;49.316;8.558;2023-05-29T05:51:41;100570.06;;;24.71;50.99
44457;BME280;30159;49.316;8.558;2023-05-29T05:54:08;100561.19;;;25.75;49.73
44457;BME280;30159;49.316;8.558;2023-05-29T05:56:34;100506.06;;;27.00;47.77
44457;BME280;30159;49.316;8.558;2023-05-29T05:59:01;100570.16;;;28.54;45.16
44457;BME280;30159;49.316;8.558;2023-05-29T06:01:29;100562.28;;;27.15;45.55
44457;BME280;30159;49.316;8.558;2023-05-29T06:03:55;100567.59;;;25.83;47.17
44457;BME280;30159;49.316;8.558;2023-05-29T06:06:22;100575.03;;;25.41;48.21
44457;BME280;30159;49.316;8.558;2023-05-29T06:08:49;100574.50;;;25.66;48.04
44457;BME280;30159;49.316;8.558;2023-05-29T06:11:16;100579.00;;;26.19;47.48
44457;BME280;30159;49.316;8.558;2023-05-29T06:13:42;100572.66;;;26.15;47.84
44457;BME280;30159;49.316;8.558;2023-05-29T06:16:09;100580.44;;;27.05;45.97
44457;BME280;30159;49.316;8.558;2023-05-29T06:18:37;100573.09;;;27.38;45.89
44457;BME280;30159;49.316;8.558;2023-05-29T06:21:03;100577.06;;;27.37;44.73
44457;BME280;30159;49.316;8.558;2023-05-29T06:23:32;100566.09;;;28.95;43.00
44457;BME280;30159;49.316;8.558;2023-05-29T06:26:03;100574.19;;;29.63;42.09
44457;BME280;30159;49.316;8.558;2023-05-29T06:28:30;100572.19;;;30.30;41.40
44457;BME280;30159;49.316;8.558;2023-05-29T06:30:56;100580.59;;;30.68;40.39
44457;BME280;30159;49.316;8.558;2023-05-29T06:33:23;100584.25;;;31.03;40.03
44457;BME280;30159;49.316;8.558;2023-05-29T06:35:51;100580.16;;;32.03;38.69
44457;BME280;30159;49.316;8.558;2023-05-29T06:38:18;100572.09;;;31.20;39.61
44457;BME280;30159;49.316;8.558;2023-05-29T06:40:44;100567.38;;;29.78;41.54
44457;BME280;30159;49.316;8.558;2023-05-29T06:43:11;100572.75;;;29.33;42.04
44457;BME280;30159;49.316;8.558;2023-05-29T06:45:37;100562.44;;;30.04;40.24
44457;BME280;30159;49.316;8.558;2023-05-29T06:48:04;100578.28;;;31.01;40.66
44457;BME280;30159;49.316;8.558;2023-05-29T06:50:31;100585.56;;;31.56;39.50
44457;BME280;30159;49.316;8.558;2023-05-29T06:53:00;100579.00;;;31.43;39.82
44457;BME280;30159;49.316;8.558;2023-05-29T06:55:28;100579.22;;;33.24;37.71
44457;BME280;30159;49.316;8.558;2023-05-29T06:57:54;100580.53;;;34.09;36.29
44457;BME280;30159;49.316;8.558;2023-05-29T07:00:21;100584.84;;;34.13;37.05
44457;BME280;30159;49.316;8.558;2023-05-29T07:02:48;100589.06;;;32.69;37.69
44457;BME280;30159;49.316;8.558;2023-05-29T07:05:16;100584.53;;;32.04;38.64
44457;BME280;30159;49.316;8.558;2023-05-29T07:07:42;100596.47;;;31.13;40.31
44457;BME280;30159;49.316;8.558;2023-05-29T07:10:11;100590.44;;;33.61;38.11
44457;BME280;30159;49.316;8.558;2023-05-29T07:12:37;100581.41;;;34.06;36.61
44457;BME280;30159;49.316;8.558;2023-05-29T07:15:04;100594.44;;;33.96;37.43
44457;BME280;30159;49.316;8.558;2023-05-29T07:17:31;100588.53;;;35.85;36.25
44457;BME280;30159;49.316;8.558;2023-05-29T07:19:57;100573.41;;;37.22;33.93
44457;BME280;30159;49.316;8.558;2023-05-29T07:22:24;100588.09;;;36.82;34.11
44457;BME280;30159;49.316;8.558;2023-05-29T07:24:50;100590.59;;;37.46;34.33
44457;BME280;30159;49.316;8.558;2023-05-29T07:27:18;100593.56;;;36.16;34.30
44457;BME280;30159;49.316;8.558;2023-05-29T07:29:45;100591.63;;;32.09;38.06
44457;BME280;30159;49.316;8.558;2023-05-29T07:32:11;100593.22;;;31.52;38.38
44457;BME280;30159;49.316;8.558;2023-05-29T07:34:38;100595.78;;;32.24;37.43
44457;BME280;30159;49.316;8.558;2023-05-29T07:37:05;100597.66;;;32.78;37.72
44457;BME280;30159;49.316;8.558;2023-05-29T07:39:34;100591.97;;;33.25;36.74
44457;BME280;30159;49.316;8.558;2023-05-29T07:42:01;100595.38;;;33.53;36.03
44457;BME280;30159;49.316;8.558;2023-05-29T07:44:29;100596.09;;;33.93;35.72
44457;BME280;30159;49.316;8.558;2023-05-29T07:46:56;100603.47;;;34.53;36.15
44457;BME280;30159;49.316;8.558;2023-05-29T07:49:22;100605.03;;;35.83;34.43
44457;BME280;30159;49.316;8.558;2023-05-29T07:51:50;100602.66;;;34.69;35.14
44457;BME280;30159;49.316;8.558;2023-05-29T07:54:16;100610.34;;;33.06;37.49
44457;BME280;30159;49.316;8.558;2023-05-29T07:56:45;100604.88;;;32.28;37.45
44457;BME280;30159;49.316;8.558;2023-05-29T07:59:12;100601.97;;;31.54;38.15
44457;BME280;30159;49.316;8.558;2023-05-29T08:01:40;100608.53;;;31.67;38.51
44457;BME280;30159;49.316;8.558;2023-05-29T08:04:06;100611.63;;;31.46;38.87
44457;BME280;30159;49.316;8.558;2023-05-29T08:06:33;100607.78;;;33.72;37.72
44457;BME280;30159;49.316;8.558;2023-05-29T08:08:59;100611.63;;;32.78;38.24
44457;BME280;30159;49.316;8.558;2023-05-29T08:11:26;100618.75;;;29.45;41.39
44457;BME280;30159;49.316;8.558;2023-05-29T08:13:53;100616.09;;;28.12;43.46
44457;BME280;30159;49.316;8.558;2023-05-29T08:16:20;100613.56;;;26.87;45.18
44457;BME280;30159;49.316;8.558;2023-05-29T08:18:48;100614.47;;;26.10;46.30
44457;BME280;30159;49.316;8.558;2023-05-29T08:21:15;100613.03;;;25.85;47.87
44457;BME280;30159;49.316;8.558;2023-05-29T08:23:42;100614.63;;;25.53;47.50
44457;BME280;30159;49.316;8.558;2023-05-29T08:26:09;100601.34;;;25.05;48.49
44457;BME280;30159;49.316;8.558;2023-05-29T08:28:35;100531.66;;;24.32;48.85
44457;BME280;30159;49.316;8.558;2023-05-29T08:31:02;100520.44;;;24.21;48.85
44457;BME280;30159;49.316;8.558;2023-05-29T08:33:28;100601.13;;;24.41;49.84
44457;BME280;30159;49.316;8.558;2023-05-29T08:35:58;100609.63;;;24.09;50.57
44457;BME280;30159;49.316;8.558;2023-05-29T08:38:24;100599.91;;;24.15;50.07
44457;BME280;30159;49.316;8.558;2023-05-29T08:40:51;100599.59;;;24.21;50.22
44457;BME280;30159;49.316;8.558;2023-05-29T08:43:21;100619.63;;;24.17;49.90
44457;BME280;30159;49.316;8.558;2023-05-29T08:45:52;100546.91;;;23.60;50.82
44457;BME280;30159;49.316;8.558;2023-05-29T08:48:22;100604.97;;;24.13;50.46
44457;BME280;30159;49.316;8.558;2023-05-29T08:50:52;100602.97;;;24.10;50.30
44457;BME280;30159;49.316;8.558;2023-05-29T08:53:21;100590.59;;;23.81;51.28
44457;BME280;30159;49.316;8.558;2023-05-29T08:55:48;100609.97;;;24.08;51.48
44457;BME280;30159;49.316;8.558;2023-05-29T08:58:17;100606.81;;;24.29;50.74
44457;BME280;30159;49.316;8.558;2023-05-29T09:00:44;100606.44;;;24.30;49.93
44457;BME280;30159;49.316;8.558;2023-05-29T09:03:12;100589.97;;;24.34;50.35
44457;BME280;30159;49.316;8.558;2023-05-29T09:05:38;100596.63;;;24.52;50.74
44457;BME280;30159;49.316;8.558;2023-05-29T09:08:06;100595.41;;;24.30;50.10
44457;BME280;30159;49.316;8.558;2023-05-29T09:10:35;100588.56;;;24.44;50.44
44457;BME280;30159;49.316;8.558;2023-05-29T09:13:02;100591.56;;;24.35;50.03
44457;BME280;30159;49.316;8.558;2023-05-29T09:15:28;100601.34;;;24.09;50.04
44457;BME280;30159;49.316;8.558;2023-05-29T09:17:57;100587.91;;;24.27;50.87
44457;BME280;30159;49.316;8.558;2023-05-29T09:20:24;100587.91;;;24.50;51.17
44457;BME280;30159;49.316;8.558;2023-05-29T09:22:53;100598.69;;;24.36;50.10
44457;BME280;30159;49.316;8.558;2023-05-29T09:25:21;100587.78;;;24.43;50.05
44457;BME280;30159;49.316;8.558;2023-05-29T09:27:53;100589.81;;;24.73;49.78
44457;BME280;30159;49.316;8.558;2023-05-29T09:30:36;100596.50;;;24.98;48.98
44457;BME280;30159;49.316;8.558;2023-05-29T09:33:04;100591.25;;;24.40;49.99
44457;BME280;30159;49.316;8.558;2023-05-29T09:35:35;100584.94;;;24.39;49.04
44457;BME280;30159;49.316;8.558;2023-05-29T09:38:02;100588.63;;;24.47;49.03
44457;BME280;30159;49.316;8.558;2023-05-29T09:40:30;100581.13;;;24.71;48.76
44457;BME280;30159;49.316;8.558;2023-05-29T09:43:03;100580.41;;;24.74;49.05
44457;BME280;30159;49.316;8.558;2023-05-29T09:45:33;100591.56;;;24.85;48.02
44457;BME280;30159;49.316;8.558;2023-05-29T09:47:59;100593.00;;;24.75;48.45
44457;BME280;30159;49.316;8.558;2023-05-29T09:50:26;100595.03;;;24.78;48.32
44457;BME280;30159;49.316;8.558;2023-05-29T09:52:53;100591.41;;;25.00;47.89
44457;BME280;30159;49.316;8.558;2023-05-29T09:55:20;100586.50;;;25.17;47.25
44457;BME280;30159;49.316;8.558;2023-05-29T09:57:47;100584.69;;;24.98;47.43
44457;BME280;30159;49.316;8.558;2023-05-29T10:00:17;100579.22;;;25.01;47.13
44457;BME280;30159;49.316;8.558;2023-05-29T10:02:45;100556.38;;;25.05;47.63
44457;BME280;30159;49.316;8.558;2023-05-29T10:05:14;100565.47;;;25.35;47.74
44457;BME280;30159;49.316;8.558;2023-05-29T10:07:43;100525.94;;;24.97;46.99
44457;BME280;30159;49.316;8.558;2023-05-29T10:10:13;100584.81;;;25.35;47.58
44457;BME280;30159;49.316;8.558;2023-05-29T10:12:44;100585.28;;;25.41;47.38
44457;BME280;30159;49.316;8.558;2023-05-29T10:15:12;100579.09;;;25.55;47.38
44457;BME280;30159;49.316;8.558;2023-05-29T10:17:46;100576.47;;;25.65;47.09
44457;BME280;30159;49.316;8.558;2023-05-29T10:20:17;100574.25;;;25.78;47.29
44457;BME280;30159;49.316;8.558;2023-05-29T10:22:46;100572.16;;;25.68;47.34
44457;BME280;30159;49.316;8.558;2023-05-29T10:25:14;100574.06;;;25.64;47.77
44457;BME280;30159;49.316;8.558;2023-05-29T10:27:44;100563.50;;;25.70;47.73
44457;BME280;30159;49.316;8.558;2023-05-29T10:30:16;100558.06;;;25.77;47.57
44457;BME280;30159;49.316;8.558;2023-05-29T10:32:59;100557.34;;;25.83;48.08
44457;BME280;30159;49.316;8.558;2023-05-29T10:35:33;100559.00;;;25.92;46.97
44457;BME280;30159;49.316;8.558;2023-05-29T10:38:10;100557.97;;;25.70;47.13
44457;BME280;30159;49.316;8.558;2023-05-29T10:40:38;100555.34;;;25.84;47.45
44457;BME280;30159;49.316;8.558;2023-05-29T10:43:04;100551.06;;;25.86;46.84
44457;BME280;30159;49.316;8.558;2023-05-29T10:45:50;100556.28;;;25.58;46.42
44457;BME280;30159;49.316;8.558;2023-05-29T10:48:40;100545.78;;;25.40;47.04
44457;BME280;30159;49.316;8.558;2023-05-29T10:51:07;100549.88;;;25.50;47.14
44457;BME280;30159;49.316;8.558;2023-05-29T10:53:34;100552.50;;;25.39;47.45
44457;BME280;30159;49.316;8.558;2023-05-29T10:56:08;100395.59;;;24.47;47.08
44457;BME280;30159;49.316;8.558;2023-05-29T10:58:36;100552.94;;;25.45;47.09
44457;BME280;30159;49.316;8.558;2023-05-29T11:01:08;100554.72;;;25.60;47.48
44457;BME280;30159;49.316;8.558;2023-05-29T11:03:35;100543.88;;;25.82;46.96
44457;BME280;30159;49.316;8.558;2023-05-29T11:06:04;100552.97;;;25.82;47.14
44457;BME280;30159;49.316;8.558;2023-05-29T11:08:33;100558.25;;;25.95;46.93
44457;BME280;30159;49.316;8.558;2023-05-29T11:11:01;100551.38;;;25.81;46.67
44457;BME280;30159;49.316;8.558;2023-05-29T11:13:32;100554.75;;;26.01;47.13
44457;BME280;30159;49.316;8.558;2023-05-29T11:16:13;100554.97;;;26.26;45.20
44457;BME280;30159;49.316;8.558;2023-05-29T11:18:46;100539.59;;;26.29;46.44
44457;BME280;30159;49.316;8.558;2023-05-29T11:21:22;100540.03;;;26.35;45.06
44457;BME280;30159;49.316;8.558;2023-05-29T11:23:51;100548.84;;;26.03;45.81
44457;BME280;30159;49.316;8.558;2023-05-29T11:26:19;100556.63;;;26.35;45.06
44457;BME280;30159;49.316;8.558;2023-05-29T11:28:46;100557.00;;;26.33;44.72
44457;BME280;30159;49.316;8.558;2023-05-29T11:31:13;100552.22;;;26.26;45.18
44457;BME280;30159;49.316;8.558;2023-05-29T11:33:47;100546.63;;;26.19;45.06
44457;BME280;30159;49.316;8.558;2023-05-29T11:36:14;100544.25;;;26.18;46.27
44457;BME280;30159;49.316;8.558;2023-05-29T11:38:42;100555.34;;;26.21;44.94
44457;BME280;30159;49.316;8.558;2023-05-29T11:41:09;100539.88;;;26.17;45.15
44457;BME280;30159;49.316;8.558;2023-05-29T11:43:36;100536.75;;;26.18;45.34
44457;BME280;30159;49.316;8.558;2023-05-29T11:46:02;100524.22;;;25.87;44.61
44457;BME280;30159;49.316;8.558;2023-05-29T11:48:29;100550.00;;;25.98;45.12
44457;BME280;30159;49.316;8.558;2023-05-29T11:50:55;100533.94;;;26.11;44.69
44457;BME280;30159;49.316;8.558;2023-05-29T11:53:22;100533.22;;;26.21;44.34
44457;BME280;30159;49.316;8.558;2023-05-29T11:55:50;100538.03;;;26.32;44.67
44457;BME280;30159;49.316;8.558;2023-05-29T11:58:17;100537.38;;;26.49;44.27
44457;BME280;30159;49.316;8.558;2023-05-29T12:00:43;100538.53;;;26.44;43.88
44457;BME280;30159;49.316;8.558;2023-05-29T12:03:12;100536.44;;;26.31;43.13
44457;BME280;30159;49.316;8.558;2023-05-29T12:05:46;100539.22;;;26.31;43.17
44457;BME280;30159;49.316;8.558;2023-05-29T12:08:14;100549.91;;;26.32;43.24
44457;BME280;30159;49.316;8.558;2023-05-29T12:10:46;100537.53;;;26.19;43.13
44457;BME280;30159;49.316;8.558;2023-05-29T12:13:15;100542.72;;;26.24;43.72
44457;BME280;30159;49.316;8.558;2023-05-29T12:15:42;100538.38;;;26.26;43.94
44457;BME280;30159;49.316;8.558;2023-05-29T12:18:09;100543.38;;;26.06;43.63
44457;BME280;30159;49.316;8.558;2023-05-29T12:20:36;100549.03;;;26.24;43.11
44457;BME280;30159;49.316;8.558;2023-05-29T12:23:03;100533.94;;;26.11;43.30
44457;BME280;30159;49.316;8.558;2023-05-29T12:25:33;100526.16;;;26.27;42.96
44457;BME280;30159;49.316;8.558;2023-05-29T12:28:02;100534.88;;;26.33;42.92
44457;BME280;30159;49.316;8.558;2023-05-29T12:30:30;100529.72;;;26.28;42.19
44457;BME280;30159;49.316;8.558;2023-05-29T12:32:57;100522.31;;;26.43;41.88
44457;BME280;30159;49.316;8.558;2023-05-29T12:35:25;100469.13;;;26.09;42.20
44457;BME280;30159;49.316;8.558;2023-05-29T12:37:54;100529.06;;;26.53;42.04
44457;BME280;30159;49.316;8.558;2023-05-29T12:40:22;100524.06;;;26.65;42.12
44457;BME280;30159;49.316;8.558;2023-05-29T12:42:53;100521.00;;;26.85;41.63
44457;BME280;30159;49.316;8.558;2023-05-29T12:45:21;100531.59;;;26.68;41.58
44457;BME280;30159;49.316;8.558;2023-05-29T12:47:54;100476.75;;;26.22;41.59
44457;BME280;30159;49.316;8.558;2023-05-29T12:50:22;100516.03;;;26.49;41.59
44457;BME280;30159;49.316;8.558;2023-05-29T12:52:53;100525.38;;;26.86;42.04
44457;BME280;30159;49.316;8.558;2023-05-29T12:55:20;100524.84;;;26.62;41.24